sensor_id;sensor_type;location;lat;lon;timestamp;P1;durP1;ratioP1;P2;durP2;ratioP2
4686;SDS011;2357;47.316;-1.348;2023-02-28T00:00:11;7.03;;;4.10;;
4686;SDS011;2357;47.316;-1.348;2023-02-28T00:02:39;3.57;;;3.27;;
4686;SDS011;2357;47.316;-1.348;2023-02-28T00:05:05;6.07;;;3.37;;
4686;SDS011;2357;47.316;-1.348;2023-02-28T00:07:32;8.80;;;4.50;;
4686;SDS011;2357;47.316;-1.348;2023-02-28T00:09:58;4.80;;;3.80;;
4686;SDS011;2357;47.316;-1.348;2023-02-28T00:12:25;8.90;;;5.77;;
4686;SDS011;2357;47.316;-1.348;2023-02-28T00:14:51;4.53;;;4.07;;
4686;SDS011;2357;47.316;-1.348;2023-02-28T00:17:17;7.67;;;3.77;;
4686;SDS011;2357;47.316;-1.348;2023-02-28T00:19:49;5.00;;;3.33;;
4686;SDS011;2357;47.316;-1.348;2023-02-28T00:22:16;4.10;;;3.80;;
4686;SDS011;2357;47.316;-1.348;2023-02-28T00:24:42;7.70;;;3.60;;
4686;SDS011;2357;47.316;-1.348;2023-02-28T00:27:08;5.30;;;4.30;;
4686;SDS011;2357;47.316;-1.348;2023-02-28T00:29:34;3.93;;;3.63;;
4686;SDS011;2357;47.316;-1.348;2023-02-28T00:31:59;5.33;;;3.97;;
4686;SDS011;2357;47.316;-1.348;2023-02-28T00:34:25;5.43;;;3.67;;
4686;SDS011;2357;47.316;-1.348;2023-02-28T00:36:51;7.33;;;4.70;;
4686;SDS011;2357;47.316;-1.348;2023-02-28T00:39:16;3.90;;;3.43;;
4686;SDS011;2357;47.316;-1.348;2023-02-28T00:41:42;4.23;;;3.90;;
4686;SDS011;2357;47.316;-1.348;2023-02-28T00:44:08;5.47;;;3.60;;
4686;SDS011;2357;47.316;-1.348;2023-02-28T00:46:34;5.33;;;4.90;;
4686;SDS011;2357;47.316;-1.348;2023-02-28T00:49:00;3.50;;;3.20;;
4686;SDS011;2357;47.316;-1.348;2023-02-28T00:51:25;4.47;;;3.57;;
4686;SDS011;2357;47.316;-1.348;2023-02-28T00:53:51;5.23;;;3.27;;
4686;SDS011;2357;47.316;-1.348;2023-02-28T00:56:16;3.70;;;3.40;;
4686;SDS011;2357;47.316;-1.348;2023-02-28T00:58:42;4.03;;;3.50;;
4686;SDS011;2357;47.316;-1.348;2023-02-28T01:01:08;3.93;;;3.33;;
4686;SDS011;2357;47.316;-1.348;2023-02-28T01:03:34;5.60;;;3.90;;
4686;SDS011;2357;47.316;-1.348;2023-02-28T01:05:59;5.27;;;3.70;;
4686;SDS011;2357;47.316;-1.348;2023-02-28T01:08:25;9.23;;;4.00;;
4686;SDS011;2357;47.316;-1.348;2023-02-28T01:10:52;3.83;;;3.27;;
4686;SDS011;2357;47.316;-1.348;2023-02-28T01:13:18;4.30;;;3.03;;
4686;SDS011;2357;47.316;-1.348;2023-02-28T01:15:51;7.77;;;3.93;;
4686;SDS011;2357;47.316;-1.348;2023-02-28T01:18:19;4.60;;;3.90;;
4686;SDS011;2357;47.316;-1.348;2023-02-28T01:20:46;5.00;;;3.90;;
4686;SDS011;2357;47.316;-1.348;2023-02-28T01:23:12;4.80;;;3.27;;
4686;SDS011;2357;47.316;-1.348;2023-02-28T01:25:37;4.53;;;4.03;;
4686;SDS011;2357;47.316;-1.348;2023-02-28T01:28:03;6.17;;;4.40;;
4686;SDS011;2357;47.316;-1.348;2023-02-28T01:30:30;10.20;;;3.90;;
4686;SDS011;2357;47.316;-1.348;2023-02-28T01:32:56;5.87;;;3.87;;
4686;SDS011;2357;47.316;-1.348;2023-02-28T01:35:22;8.87;;;4.60;;
4686;SDS011;2357;47.316;-1.348;2023-02-28T01:37:48;6.93;;;4.33;;
4686;SDS011;2357;47.316;-1.348;2023-02-28T01:40:14;4.93;;;4.00;;
4686;SDS011;2357;47.316;-1.348;2023-02-28T01:42:39;7.40;;;4.40;;
4686;SDS011;2357;47.316;-1.348;2023-02-28T01:48:07;4.10;;;3.80;;
4686;SDS011;2357;47.316;-1.348;2023-02-28T01:50:35;5.07;;;3.60;;
4686;SDS011;2357;47.316;-1.348;2023-02-28T01:53:04;4.40;;;4.00;;
4686;SDS011;2357;47.316;-1.348;2023-02-28T01:55:31;4.40;;;3.90;;
4686;SDS011;2357;47.316;-1.348;2023-02-28T01:57:59;4.83;;;3.73;;
4686;SDS011;2357;47.316;-1.348;2023-02-28T02:00:29;9.83;;;4.40;;
4686;SDS011;2357;47.316;-1.348;2023-02-28T02:03:05;5.50;;;4.00;;
4686;SDS011;2357;47.316;-1.348;2023-02-28T02:05:33;7.50;;;3.63;;
4686;SDS011;2357;47.316;-1.348;2023-02-28T02:08:06;7.40;;;3.63;;
4686;SDS011;2357;47.316;-1.348;2023-02-28T02:10:36;7.67;;;4.10;;
4686;SDS011;2357;47.316;-1.348;2023-02-28T02:13:19;4.80;;;4.03;;
4686;SDS011;2357;47.316;-1.348;2023-02-28T02:27:16;6.13;;;5.53;;
4686;SDS011;2357;47.316;-1.348;2023-02-28T02:37:44;5.40;;;4.37;;
4686;SDS011;2357;47.316;-1.348;2023-02-28T02:40:20;12.63;;;4.27;;
4686;SDS011;2357;47.316;-1.348;2023-02-28T02:42:53;4.77;;;4.20;;
4686;SDS011;2357;47.316;-1.348;2023-02-28T02:45:42;7.70;;;4.50;;
4686;SDS011;2357;47.316;-1.348;2023-02-28T02:48:21;9.60;;;4.60;;
4686;SDS011;2357;47.316;-1.348;2023-02-28T02:50:51;4.93;;;4.53;;
4686;SDS011;2357;47.316;-1.348;2023-02-28T02:53:22;5.97;;;4.20;;
4686;SDS011;2357;47.316;-1.348;2023-02-28T02:55:54;6.20;;;5.13;;
4686;SDS011;2357;47.316;-1.348;2023-02-28T02:58:24;6.77;;;4.63;;
4686;SDS011;2357;47.316;-1.348;2023-02-28T03:00:54;4.80;;;4.40;;
4686;SDS011;2357;47.316;-1.348;2023-02-28T03:03:24;5.60;;;4.60;;
4686;SDS011;2357;47.316;-1.348;2023-02-28T03:05:55;4.73;;;4.33;;
4686;SDS011;2357;47.316;-1.348;2023-02-28T03:08:22;7.10;;;4.57;;
4686;SDS011;2357;47.316;-1.348;2023-02-28T03:10:48;4.90;;;4.43;;
4686;SDS011;2357;47.316;-1.348;2023-02-28T03:26:50;5.40;;;4.90;;
4686;SDS011;2357;47.316;-1.348;2023-02-28T03:29:27;7.50;;;4.80;;
4686;SDS011;2357;47.316;-1.348;2023-02-28T03:35:00;5.50;;;5.00;;
4686;SDS011;2357;47.316;-1.348;2023-02-28T03:37:32;6.90;;;5.50;;
4686;SDS011;2357;47.316;-1.348;2023-02-28T03:40:05;10.17;;;4.90;;
4686;SDS011;2357;47.316;-1.348;2023-02-28T03:42:39;5.63;;;5.13;;
4686;SDS011;2357;47.316;-1.348;2023-02-28T03:45:14;5.33;;;4.73;;
4686;SDS011;2357;47.316;-1.348;2023-02-28T03:50:47;5.87;;;5.30;;
4686;SDS011;2357;47.316;-1.348;2023-02-28T03:53:19;7.10;;;5.07;;
4686;SDS011;2357;47.316;-1.348;2023-02-28T04:01:20;8.30;;;6.47;;
4686;SDS011;2357;47.316;-1.348;2023-02-28T04:03:50;7.03;;;6.07;;
4686;SDS011;2357;47.316;-1.348;2023-02-28T04:06:17;11.90;;;6.70;;
4686;SDS011;2357;47.316;-1.348;2023-02-28T04:08:45;6.67;;;5.97;;
4686;SDS011;2357;47.316;-1.348;2023-02-28T04:11:15;13.03;;;6.83;;
4686;SDS011;2357;47.316;-1.348;2023-02-28T04:14:02;6.93;;;6.20;;
4686;SDS011;2357;47.316;-1.348;2023-02-28T04:16:30;9.67;;;5.70;;
4686;SDS011;2357;47.316;-1.348;2023-02-28T04:18:56;8.33;;;5.80;;
4686;SDS011;2357;47.316;-1.348;2023-02-28T04:21:48;9.87;;;5.53;;
4686;SDS011;2357;47.316;-1.348;2023-02-28T04:24:14;9.80;;;6.30;;
4686;SDS011;2357;47.316;-1.348;2023-02-28T04:26:42;10.20;;;6.23;;
4686;SDS011;2357;47.316;-1.348;2023-02-28T04:29:11;8.77;;;6.00;;
4686;SDS011;2357;47.316;-1.348;2023-02-28T04:31:38;6.90;;;6.20;;
4686;SDS011;2357;47.316;-1.348;2023-02-28T04:34:04;12.77;;;7.63;;
4686;SDS011;2357;47.316;-1.348;2023-02-28T04:36:30;11.10;;;7.73;;
4686;SDS011;2357;47.316;-1.348;2023-02-28T04:38:56;6.70;;;6.07;;
4686;SDS011;2357;47.316;-1.348;2023-02-28T04:41:22;7.80;;;6.33;;
4686;SDS011;2357;47.316;-1.348;2023-02-28T04:43:48;6.90;;;5.97;;
4686;SDS011;2357;47.316;-1.348;2023-02-28T04:46:14;9.57;;;5.33;;
4686;SDS011;2357;47.316;-1.348;2023-02-28T04:48:40;7.27;;;6.37;;
4686;SDS011;2357;47.316;-1.348;2023-02-28T04:53:31;9.40;;;5.70;;
4686;SDS011;2357;47.316;-1.348;2023-02-28T04:55:57;7.53;;;6.63;;
4686;SDS011;2357;47.316;-1.348;2023-02-28T04:58:24;12.00;;;6.70;;
4686;SDS011;2357;47.316;-1.348;2023-02-28T05:00:50;10.73;;;6.30;;
4686;SDS011;2357;47.316;-1.348;2023-02-28T05:03:16;8.83;;;6.00;;
4686;SDS011;2357;47.316;-1.348;2023-02-28T05:05:42;8.47;;;6.33;;
4686;SDS011;2357;47.316;-1.348;2023-02-28T05:08:08;8.17;;;5.97;;
4686;SDS011;2357;47.316;-1.348;2023-02-28T05:10:34;9.03;;;6.90;;
4686;SDS011;2357;47.316;-1.348;2023-02-28T05:13:01;6.17;;;5.57;;
4686;SDS011;2357;47.316;-1.348;2023-02-28T05:15:26;6.17;;;5.57;;
4686;SDS011;2357;47.316;-1.348;2023-02-28T05:17:53;6.63;;;5.87;;
4686;SDS011;2357;47.316;-1.348;2023-02-28T05:20:18;10.10;;;6.37;;
4686;SDS011;2357;47.316;-1.348;2023-02-28T05:22:45;8.57;;;6.53;;
4686;SDS011;2357;47.316;-1.348;2023-02-28T05:25:18;12.40;;;6.83;;
4686;SDS011;2357;47.316;-1.348;2023-02-28T05:27:46;11.10;;;6.97;;
4686;SDS011;2357;47.316;-1.348;2023-02-28T05:30:12;10.03;;;7.23;;
4686;SDS011;2357;47.316;-1.348;2023-02-28T05:32:38;9.90;;;6.23;;
4686;SDS011;2357;47.316;-1.348;2023-02-28T05:35:09;7.47;;;6.77;;
4686;SDS011;2357;47.316;-1.348;2023-02-28T05:37:36;7.90;;;6.50;;
4686;SDS011;2357;47.316;-1.348;2023-02-28T05:40:03;8.03;;;6.50;;
4686;SDS011;2357;47.316;-1.348;2023-02-28T05:42:31;8.50;;;6.87;;
4686;SDS011;2357;47.316;-1.348;2023-02-28T05:44:57;7.83;;;6.80;;
4686;SDS011;2357;47.316;-1.348;2023-02-28T05:47:23;8.50;;;6.70;;
4686;SDS011;2357;47.316;-1.348;2023-02-28T05:49:49;8.33;;;5.97;;
4686;SDS011;2357;47.316;-1.348;2023-02-28T05:52:15;7.73;;;5.93;;
4686;SDS011;2357;47.316;-1.348;2023-02-28T05:54:40;7.70;;;6.70;;
4686;SDS011;2357;47.316;-1.348;2023-02-28T05:57:06;8.13;;;5.97;;
4686;SDS011;2357;47.316;-1.348;2023-02-28T05:59:32;9.33;;;6.97;;
4686;SDS011;2357;47.316;-1.348;2023-02-28T06:01:58;8.67;;;6.70;;
4686;SDS011;2357;47.316;-1.348;2023-02-28T06:04:23;13.30;;;6.70;;
4686;SDS011;2357;47.316;-1.348;2023-02-28T06:06:49;8.60;;;6.60;;
4686;SDS011;2357;47.316;-1.348;2023-02-28T06:09:15;7.20;;;6.50;;
4686;SDS011;2357;47.316;-1.348;2023-02-28T06:11:42;21.13;;;8.13;;
4686;SDS011;2357;47.316;-1.348;2023-02-28T06:14:09;8.13;;;7.40;;
4686;SDS011;2357;47.316;-1.348;2023-02-28T06:16:42;9.20;;;5.80;;
4686;SDS011;2357;47.316;-1.348;2023-02-28T06:19:08;11.20;;;7.23;;
4686;SDS011;2357;47.316;-1.348;2023-02-28T06:21:34;12.43;;;6.00;;
4686;SDS011;2357;47.316;-1.348;2023-02-28T06:23:59;9.43;;;6.70;;
4686;SDS011;2357;47.316;-1.348;2023-02-28T06:26:25;7.03;;;6.33;;
4686;SDS011;2357;47.316;-1.348;2023-02-28T06:28:51;8.70;;;7.43;;
4686;SDS011;2357;47.316;-1.348;2023-02-28T06:31:17;10.63;;;6.53;;
4686;SDS011;2357;47.316;-1.348;2023-02-28T06:33:43;9.20;;;7.03;;
4686;SDS011;2357;47.316;-1.348;2023-02-28T06:36:10;7.83;;;6.57;;
4686;SDS011;2357;47.316;-1.348;2023-02-28T06:38:37;9.40;;;6.97;;
4686;SDS011;2357;47.316;-1.348;2023-02-28T06:41:04;7.00;;;6.30;;
4686;SDS011;2357;47.316;-1.348;2023-02-28T06:43:31;9.20;;;6.73;;
4686;SDS011;2357;47.316;-1.348;2023-02-28T06:46:00;7.17;;;6.50;;
4686;SDS011;2357;47.316;-1.348;2023-02-28T06:48:27;6.77;;;5.80;;
4686;SDS011;2357;47.316;-1.348;2023-02-28T06:51:09;12.57;;;6.63;;
4686;SDS011;2357;47.316;-1.348;2023-02-28T06:53:40;11.83;;;7.20;;
4686;SDS011;2357;47.316;-1.348;2023-02-28T06:56:06;7.70;;;7.00;;
4686;SDS011;2357;47.316;-1.348;2023-02-28T06:58:34;8.67;;;7.13;;
4686;SDS011;2357;47.316;-1.348;2023-02-28T07:01:00;11.77;;;6.53;;
4686;SDS011;2357;47.316;-1.348;2023-02-28T07:03:26;9.60;;;6.73;;
4686;SDS011;2357;47.316;-1.348;2023-02-28T07:05:52;8.37;;;6.60;;
4686;SDS011;2357;47.316;-1.348;2023-02-28T07:08:18;10.73;;;6.80;;
4686;SDS011;2357;47.316;-1.348;2023-02-28T07:10:43;8.23;;;7.30;;
4686;SDS011;2357;47.316;-1.348;2023-02-28T07:13:09;8.03;;;6.40;;
4686;SDS011;2357;47.316;-1.348;2023-02-28T07:15:36;9.13;;;6.80;;
4686;SDS011;2357;47.316;-1.348;2023-02-28T07:18:02;15.50;;;7.73;;
4686;SDS011;2357;47.316;-1.348;2023-02-28T07:20:28;7.60;;;6.80;;
4686;SDS011;2357;47.316;-1.348;2023-02-28T07:22:54;12.27;;;8.10;;
4686;SDS011;2357;47.316;-1.348;2023-02-28T07:25:23;10.50;;;7.70;;
4686;SDS011;2357;47.316;-1.348;2023-02-28T07:27:49;8.60;;;7.03;;
4686;SDS011;2357;47.316;-1.348;2023-02-28T07:30:15;8.77;;;6.70;;
4686;SDS011;2357;47.316;-1.348;2023-02-28T07:32:41;11.03;;;7.37;;
4686;SDS011;2357;47.316;-1.348;2023-02-28T07:35:06;8.53;;;6.60;;
4686;SDS011;2357;47.316;-1.348;2023-02-28T07:37:32;9.30;;;7.87;;
4686;SDS011;2357;47.316;-1.348;2023-02-28T07:40:04;11.07;;;8.57;;
4686;SDS011;2357;47.316;-1.348;2023-02-28T07:42:33;10.30;;;8.80;;
4686;SDS011;2357;47.316;-1.348;2023-02-28T07:45:00;12.63;;;8.83;;
4686;SDS011;2357;47.316;-1.348;2023-02-28T07:47:26;10.67;;;7.73;;
4686;SDS011;2357;47.316;-1.348;2023-02-28T07:49:53;10.53;;;7.53;;
4686;SDS011;2357;47.316;-1.348;2023-02-28T07:52:19;13.37;;;7.50;;
4686;SDS011;2357;47.316;-1.348;2023-02-28T07:54:44;10.90;;;7.40;;
4686;SDS011;2357;47.316;-1.348;2023-02-28T07:57:10;15.10;;;7.90;;
4686;SDS011;2357;47.316;-1.348;2023-02-28T07:59:36;11.13;;;7.33;;
4686;SDS011;2357;47.316;-1.348;2023-02-28T08:02:01;12.60;;;8.30;;
4686;SDS011;2357;47.316;-1.348;2023-02-28T08:04:27;12.83;;;7.60;;
4686;SDS011;2357;47.316;-1.348;2023-02-28T08:06:53;10.90;;;8.13;;
4686;SDS011;2357;47.316;-1.348;2023-02-28T08:09:21;10.87;;;6.90;;
4686;SDS011;2357;47.316;-1.348;2023-02-28T08:11:47;9.43;;;7.33;;
4686;SDS011;2357;47.316;-1.348;2023-02-28T08:14:12;8.00;;;6.57;;
4686;SDS011;2357;47.316;-1.348;2023-02-28T08:16:38;12.43;;;7.27;;
4686;SDS011;2357;47.316;-1.348;2023-02-28T08:19:04;19.07;;;7.50;;
4686;SDS011;2357;47.316;-1.348;2023-02-28T08:21:30;7.63;;;6.60;;
4686;SDS011;2357;47.316;-1.348;2023-02-28T08:23:55;14.73;;;7.17;;
4686;SDS011;2357;47.316;-1.348;2023-02-28T08:26:22;9.07;;;6.60;;
4686;SDS011;2357;47.316;-1.348;2023-02-28T08:28:47;10.70;;;6.97;;
4686;SDS011;2357;47.316;-1.348;2023-02-28T08:31:14;7.23;;;6.53;;
4686;SDS011;2357;47.316;-1.348;2023-02-28T08:33:41;16.27;;;6.40;;
4686;SDS011;2357;47.316;-1.348;2023-02-28T08:36:08;6.23;;;5.60;;
4686;SDS011;2357;47.316;-1.348;2023-02-28T08:38:34;7.10;;;6.40;;
4686;SDS011;2357;47.316;-1.348;2023-02-28T08:41:02;7.53;;;5.90;;
4686;SDS011;2357;47.316;-1.348;2023-02-28T08:43:32;8.40;;;7.10;;
4686;SDS011;2357;47.316;-1.348;2023-02-28T08:45:58;8.50;;;5.47;;
4686;SDS011;2357;47.316;-1.348;2023-02-28T08:48:25;9.47;;;6.57;;
4686;SDS011;2357;47.316;-1.348;2023-02-28T08:50:58;9.30;;;5.90;;
4686;SDS011;2357;47.316;-1.348;2023-02-28T08:53:28;6.37;;;5.60;;
4686;SDS011;2357;47.316;-1.348;2023-02-28T08:55:58;16.47;;;6.67;;
4686;SDS011;2357;47.316;-1.348;2023-02-28T08:58:28;8.17;;;5.97;;
4686;SDS011;2357;47.316;-1.348;2023-02-28T09:00:54;7.90;;;5.93;;
4686;SDS011;2357;47.316;-1.348;2023-02-28T09:03:20;6.83;;;6.13;;
4686;SDS011;2357;47.316;-1.348;2023-02-28T09:05:56;11.03;;;5.63;;
4686;SDS011;2357;47.316;-1.348;2023-02-28T09:08:24;7.67;;;5.27;;
4686;SDS011;2357;47.316;-1.348;2023-02-28T09:10:50;6.67;;;5.30;;
4686;SDS011;2357;47.316;-1.348;2023-02-28T09:13:17;6.43;;;5.27;;
4686;SDS011;2357;47.316;-1.348;2023-02-28T09:15:43;5.57;;;4.40;;
4686;SDS011;2357;47.316;-1.348;2023-02-28T09:18:09;6.10;;;5.50;;
4686;SDS011;2357;47.316;-1.348;2023-02-28T09:20:39;4.23;;;3.93;;
4686;SDS011;2357;47.316;-1.348;2023-02-28T09:23:05;5.90;;;4.47;;
4686;SDS011;2357;47.316;-1.348;2023-02-28T09:25:31;6.07;;;4.57;;
4686;SDS011;2357;47.316;-1.348;2023-02-28T09:27:57;5.20;;;4.70;;
4686;SDS011;2357;47.316;-1.348;2023-02-28T09:30:22;11.10;;;4.17;;
4686;SDS011;2357;47.316;-1.348;2023-02-28T09:32:48;4.70;;;4.20;;
4686;SDS011;2357;47.316;-1.348;2023-02-28T09:35:23;8.27;;;3.90;;
4686;SDS011;2357;47.316;-1.348;2023-02-28T09:37:50;5.77;;;4.10;;
4686;SDS011;2357;47.316;-1.348;2023-02-28T09:40:17;5.60;;;3.67;;
4686;SDS011;2357;47.316;-1.348;2023-02-28T09:42:47;4.70;;;3.80;;
4686;SDS011;2357;47.316;-1.348;2023-02-28T09:45:23;4.07;;;3.77;;
4686;SDS011;2357;47.316;-1.348;2023-02-28T09:48:03;3.63;;;3.17;;
4686;SDS011;2357;47.316;-1.348;2023-02-28T09:50:41;6.13;;;3.50;;
4686;SDS011;2357;47.316;-1.348;2023-02-28T09:53:18;3.50;;;3.20;;
4686;SDS011;2357;47.316;-1.348;2023-02-28T09:55:57;4.43;;;3.20;;
4686;SDS011;2357;47.316;-1.348;2023-02-28T09:58:39;3.37;;;3.13;;
4686;SDS011;2357;47.316;-1.348;2023-02-28T10:01:28;5.37;;;3.57;;
4686;SDS011;2357;47.316;-1.348;2023-02-28T10:04:16;4.40;;;3.27;;
4686;SDS011;2357;47.316;-1.348;2023-02-28T10:06:55;3.60;;;3.17;;
4686;SDS011;2357;47.316;-1.348;2023-02-28T10:09:26;3.57;;;2.80;;
4686;SDS011;2357;47.316;-1.348;2023-02-28T10:11:56;3.80;;;3.50;;
4686;SDS011;2357;47.316;-1.348;2023-02-28T10:14:27;3.50;;;2.90;;
4686;SDS011;2357;47.316;-1.348;2023-02-28T10:16:56;2.33;;;2.10;;
4686;SDS011;2357;47.316;-1.348;2023-02-28T10:19:23;3.30;;;2.20;;
4686;SDS011;2357;47.316;-1.348;2023-02-28T10:24:58;3.93;;;2.20;;
4686;SDS011;2357;47.316;-1.348;2023-02-28T10:27:29;2.40;;;2.10;;
4686;SDS011;2357;47.316;-1.348;2023-02-28T10:29:56;1.93;;;1.80;;
4686;SDS011;2357;47.316;-1.348;2023-02-28T10:32:28;6.60;;;1.97;;
4686;SDS011;2357;47.316;-1.348;2023-02-28T10:35:01;2.00;;;1.80;;
4686;SDS011;2357;47.316;-1.348;2023-02-28T10:37:39;3.17;;;1.93;;
4686;SDS011;2357;47.316;-1.348;2023-02-28T10:40:07;2.73;;;2.03;;
4686;SDS011;2357;47.316;-1.348;2023-02-28T10:45:55;2.20;;;2.10;;
4686;SDS011;2357;47.316;-1.348;2023-02-28T10:48:36;2.10;;;2.00;;
4686;SDS011;2357;47.316;-1.348;2023-02-28T10:51:11;4.07;;;1.60;;
4686;SDS011;2357;47.316;-1.348;2023-02-28T10:53:51;2.03;;;1.87;;
4686;SDS011;2357;47.316;-1.348;2023-02-28T10:56:20;1.97;;;1.80;;
4686;SDS011;2357;47.316;-1.348;2023-02-28T10:58:49;1.87;;;1.77;;
4686;SDS011;2357;47.316;-1.348;2023-02-28T11:01:22;2.70;;;1.60;;
4686;SDS011;2357;47.316;-1.348;2023-02-28T11:04:03;1.70;;;1.60;;
4686;SDS011;2357;47.316;-1.348;2023-02-28T11:06:58;1.43;;;1.43;;
4686;SDS011;2357;47.316;-1.348;2023-02-28T11:09:35;2.03;;;1.57;;
4686;SDS011;2357;47.316;-1.348;2023-02-28T11:12:06;1.50;;;1.30;;
4686;SDS011;2357;47.316;-1.348;2023-02-28T11:14:47;1.30;;;1.30;;
4686;SDS011;2357;47.316;-1.348;2023-02-28T11:17:19;1.10;;;1.10;;
4686;SDS011;2357;47.316;-1.348;2023-02-28T11:19:48;1.50;;;1.40;;
4686;SDS011;2357;47.316;-1.348;2023-02-28T11:22:18;1.67;;;1.57;;
4686;SDS011;2357;47.316;-1.348;2023-02-28T11:24:47;1.80;;;1.70;;
4686;SDS011;2357;47.316;-1.348;2023-02-28T11:29:54;4.60;;;1.70;;
4686;SDS011;2357;47.316;-1.348;2023-02-28T11:32:21;1.10;;;0.93;;
4686;SDS011;2357;47.316;-1.348;2023-02-28T11:37:36;2.20;;;1.10;;
4686;SDS011;2357;47.316;-1.348;2023-02-28T11:40:05;2.50;;;1.80;;
4686;SDS011;2357;47.316;-1.348;2023-02-28T11:42:55;1.20;;;1.20;;
4686;SDS011;2357;47.316;-1.348;2023-02-28T11:52:00;2.50;;;1.43;;
4686;SDS011;2357;47.316;-1.348;2023-02-28T11:54:44;1.60;;;1.47;;
4686;SDS011;2357;47.316;-1.348;2023-02-28T11:57:38;3.93;;;1.63;;
4686;SDS011;2357;47.316;-1.348;2023-02-28T12:00:32;2.30;;;1.70;;
4686;SDS011;2357;47.316;-1.348;2023-02-28T12:06:03;3.73;;;1.13;;
4686;SDS011;2357;47.316;-1.348;2023-02-28T12:09:02;1.33;;;1.33;;
4686;SDS011;2357;47.316;-1.348;2023-02-28T12:12:00;1.70;;;1.60;;
4686;SDS011;2357;47.316;-1.348;2023-02-28T12:20:11;2.90;;;2.23;;
4686;SDS011;2357;47.316;-1.348;2023-02-28T12:28:53;2.00;;;1.80;;
4686;SDS011;2357;47.316;-1.348;2023-02-28T12:31:29;2.23;;;1.97;;
4686;SDS011;2357;47.316;-1.348;2023-02-28T12:34:02;1.40;;;1.40;;
4686;SDS011;2357;47.316;-1.348;2023-02-28T12:36:31;2.73;;;1.93;;
4686;SDS011;2357;47.316;-1.348;2023-02-28T12:39:13;2.13;;;1.97;;
4686;SDS011;2357;47.316;-1.348;2023-02-28T12:44:23;2.70;;;2.00;;
4686;SDS011;2357;47.316;-1.348;2023-02-28T12:46:58;1.90;;;1.80;;
4686;SDS011;2357;47.316;-1.348;2023-02-28T12:49:33;2.00;;;1.90;;
4686;SDS011;2357;47.316;-1.348;2023-02-28T12:52:04;2.20;;;2.00;;
4686;SDS011;2357;47.316;-1.348;2023-02-28T12:57:23;2.63;;;2.27;;
4686;SDS011;2357;47.316;-1.348;2023-02-28T12:59:57;2.37;;;2.17;;
4686;SDS011;2357;47.316;-1.348;2023-02-28T13:10:47;2.77;;;2.57;;
4686;SDS011;2357;47.316;-1.348;2023-02-28T13:13:20;2.97;;;2.37;;
4686;SDS011;2357;47.316;-1.348;2023-02-28T13:18:32;2.77;;;2.50;;
4686;SDS011;2357;47.316;-1.348;2023-02-28T13:21:04;2.40;;;2.20;;
4686;SDS011;2357;47.316;-1.348;2023-02-28T13:23:56;12.87;;;2.63;;
4686;SDS011;2357;47.316;-1.348;2023-02-28T13:35:12;1.93;;;1.83;;
4686;SDS011;2357;47.316;-1.348;2023-02-28T13:37:33;2.17;;;2.07;;
4686;SDS011;2357;47.316;-1.348;2023-02-28T13:40:35;3.13;;;1.90;;
4686;SDS011;2357;47.316;-1.348;2023-02-28T13:43:01;6.40;;;2.37;;
4686;SDS011;2357;47.316;-1.348;2023-02-28T13:45:28;1.70;;;1.60;;
4686;SDS011;2357;47.316;-1.348;2023-02-28T13:48:04;2.10;;;2.00;;
4686;SDS011;2357;47.316;-1.348;2023-02-28T13:50:42;3.97;;;1.90;;
4686;SDS011;2357;47.316;-1.348;2023-02-28T14:06:33;6.07;;;2.30;;
4686;SDS011;2357;47.316;-1.348;2023-02-28T14:11:38;4.80;;;2.53;;
4686;SDS011;2357;47.316;-1.348;2023-02-28T14:14:05;6.60;;;2.27;;
4686;SDS011;2357;47.316;-1.348;2023-02-28T14:24:25;1.90;;;1.80;;
4686;SDS011;2357;47.316;-1.348;2023-02-28T14:29:51;2.43;;;2.23;;
4686;SDS011;2357;47.316;-1.348;2023-02-28T14:35:40;4.20;;;2.20;;
4686;SDS011;2357;47.316;-1.348;2023-02-28T14:38:24;2.33;;;2.13;;
4686;SDS011;2357;47.316;-1.348;2023-02-28T14:40:54;3.30;;;2.80;;
4686;SDS011;2357;47.316;-1.348;2023-02-28T14:43:23;2.37;;;2.10;;
4686;SDS011;2357;47.316;-1.348;2023-02-28T14:46:00;3.03;;;2.30;;
4686;SDS011;2357;47.316;-1.348;2023-02-28T14:48:27;3.07;;;2.80;;
4686;SDS011;2357;47.316;-1.348;2023-02-28T14:50:55;4.20;;;2.43;;
4686;SDS011;2357;47.316;-1.348;2023-02-28T14:53:23;2.93;;;2.47;;
4686;SDS011;2357;47.316;-1.348;2023-02-28T14:55:52;6.37;;;3.70;;
4686;SDS011;2357;47.316;-1.348;2023-02-28T15:00:50;6.17;;;4.00;;
4686;SDS011;2357;47.316;-1.348;2023-02-28T15:03:22;11.90;;;2.70;;
4686;SDS011;2357;47.316;-1.348;2023-02-28T15:05:59;3.43;;;3.13;;
4686;SDS011;2357;47.316;-1.348;2023-02-28T15:08:38;2.63;;;2.27;;
4686;SDS011;2357;47.316;-1.348;2023-02-28T15:11:04;3.03;;;2.90;;
4686;SDS011;2357;47.316;-1.348;2023-02-28T15:13:45;5.43;;;3.30;;
4686;SDS011;2357;47.316;-1.348;2023-02-28T15:21:17;4.77;;;3.10;;
4686;SDS011;2357;47.316;-1.348;2023-02-28T15:23:46;4.40;;;3.03;;
4686;SDS011;2357;47.316;-1.348;2023-02-28T15:26:16;4.70;;;3.20;;
4686;SDS011;2357;47.316;-1.348;2023-02-28T15:29:03;2.50;;;2.30;;
4686;SDS011;2357;47.316;-1.348;2023-02-28T15:31:31;2.13;;;2.03;;
4686;SDS011;2357;47.316;-1.348;2023-02-28T15:34:02;4.40;;;2.10;;
4686;SDS011;2357;47.316;-1.348;2023-02-28T15:36:31;2.37;;;2.17;;
4686;SDS011;2357;47.316;-1.348;2023-02-28T15:39:02;2.33;;;2.10;;
4686;SDS011;2357;47.316;-1.348;2023-02-28T15:41:29;2.57;;;2.07;;
4686;SDS011;2357;47.316;-1.348;2023-02-28T15:46:43;9.57;;;2.80;;
4686;SDS011;2357;47.316;-1.348;2023-02-28T15:49:23;2.77;;;2.30;;
4686;SDS011;2357;47.316;-1.348;2023-02-28T15:51:50;2.07;;;1.97;;
4686;SDS011;2357;47.316;-1.348;2023-02-28T15:54:19;2.87;;;2.10;;
4686;SDS011;2357;47.316;-1.348;2023-02-28T15:56:52;3.83;;;2.50;;
4686;SDS011;2357;47.316;-1.348;2023-02-28T15:59:25;7.17;;;2.17;;
4686;SDS011;2357;47.316;-1.348;2023-02-28T16:02:04;2.90;;;1.53;;
4686;SDS011;2357;47.316;-1.348;2023-02-28T16:05:45;1.53;;;1.43;;
4686;SDS011;2357;47.316;-1.348;2023-02-28T16:07:45;1.50;;;1.40;;
4686;SDS011;2357;47.316;-1.348;2023-02-28T16:10:13;2.00;;;1.80;;
4686;SDS011;2357;47.316;-1.348;2023-02-28T16:12:41;3.40;;;2.07;;
4686;SDS011;2357;47.316;-1.348;2023-02-28T16:15:08;2.63;;;2.43;;
4686;SDS011;2357;47.316;-1.348;2023-02-28T16:17:51;2.13;;;2.00;;
4686;SDS011;2357;47.316;-1.348;2023-02-28T16:20:20;6.20;;;1.63;;
4686;SDS011;2357;47.316;-1.348;2023-02-28T16:22:49;1.97;;;1.87;;
4686;SDS011;2357;47.316;-1.348;2023-02-28T16:25:17;2.40;;;2.20;;
4686;SDS011;2357;47.316;-1.348;2023-02-28T16:27:46;2.10;;;2.00;;
4686;SDS011;2357;47.316;-1.348;2023-02-28T16:30:18;1.47;;;1.37;;
4686;SDS011;2357;47.316;-1.348;2023-02-28T16:32:46;2.80;;;2.60;;
4686;SDS011;2357;47.316;-1.348;2023-02-28T16:35:12;4.10;;;2.17;;
4686;SDS011;2357;47.316;-1.348;2023-02-28T16:37:39;2.47;;;1.97;;
4686;SDS011;2357;47.316;-1.348;2023-02-28T16:40:06;2.20;;;2.00;;
4686;SDS011;2357;47.316;-1.348;2023-02-28T16:42:43;2.30;;;2.20;;
4686;SDS011;2357;47.316;-1.348;2023-02-28T16:45:14;2.83;;;1.60;;
4686;SDS011;2357;47.316;-1.348;2023-02-28T16:47:46;2.27;;;1.73;;
4686;SDS011;2357;47.316;-1.348;2023-02-28T16:50:16;2.33;;;1.97;;
4686;SDS011;2357;47.316;-1.348;2023-02-28T16:52:45;2.53;;;2.27;;
4686;SDS011;2357;47.316;-1.348;2023-02-28T16:55:10;2.60;;;2.47;;
4686;SDS011;2357;47.316;-1.348;2023-02-28T16:57:37;2.80;;;2.60;;
4686;SDS011;2357;47.316;-1.348;2023-02-28T17:00:04;4.10;;;2.37;;
4686;SDS011;2357;47.316;-1.348;2023-02-28T17:02:32;3.70;;;2.23;;
4686;SDS011;2357;47.316;-1.348;2023-02-28T17:04:58;2.07;;;1.83;;
4686;SDS011;2357;47.316;-1.348;2023-02-28T17:07:24;4.47;;;2.10;;
4686;SDS011;2357;47.316;-1.348;2023-02-28T17:09:50;5.37;;;3.07;;
4686;SDS011;2357;47.316;-1.348;2023-02-28T17:12:15;2.73;;;2.53;;
4686;SDS011;2357;47.316;-1.348;2023-02-28T17:14:41;7.20;;;3.20;;
4686;SDS011;2357;47.316;-1.348;2023-02-28T17:17:07;31.90;;;3.63;;
4686;SDS011;2357;47.316;-1.348;2023-02-28T17:19:40;3.20;;;2.90;;
4686;SDS011;2357;47.316;-1.348;2023-02-28T17:22:08;6.87;;;4.30;;
4686;SDS011;2357;47.316;-1.348;2023-02-28T17:24:34;5.00;;;3.80;;
4686;SDS011;2357;47.316;-1.348;2023-02-28T17:27:00;3.47;;;3.27;;
4686;SDS011;2357;47.316;-1.348;2023-02-28T17:29:26;7.87;;;2.73;;
4686;SDS011;2357;47.316;-1.348;2023-02-28T17:31:52;4.70;;;3.30;;
4686;SDS011;2357;47.316;-1.348;2023-02-28T17:34:17;5.30;;;3.50;;
4686;SDS011;2357;47.316;-1.348;2023-02-28T17:36:44;6.83;;;3.73;;
4686;SDS011;2357;47.316;-1.348;2023-02-28T17:39:12;3.93;;;3.03;;
4686;SDS011;2357;47.316;-1.348;2023-02-28T17:41:39;4.87;;;3.27;;
4686;SDS011;2357;47.316;-1.348;2023-02-28T17:44:06;2.90;;;2.70;;